Terminal Aerodrome Forecast
Issued by NWS Paducah, KY

Home | Current Version | Previous Version | Text Only | Print | Product List | Glossary On
Versions: 1 2 3 4 5 6 7 8 9 10 11 12 13 14 15 16 17 18
000
FTUS43 KPAH 061610 AAD
TAFEVV
TAF AMD
KEVV 061610Z 0616/0712 30007KT P6SM OVC006
      TEMPO 0616/0617 4SM -RA BR OVC005
     FM061800 33008G16KT P6SM OVC012
     FM062000 31012G20KT P6SM OVC025
     FM070300 31008KT P6SM SCT030=

USA.gov is the U.S. government's official web portal to all federal, state and local government web resources and services.